createdAt,value
2023-11-24T00:01:40.128Z,9.10
2023-11-24T00:04:07.142Z,9.12
2023-11-24T00:06:33.887Z,9.15
2023-11-24T00:09:00.450Z,9.14
2023-11-24T00:11:27.756Z,9.18
2023-11-24T00:13:54.858Z,9.19
2023-11-24T00:16:22.795Z,9.20
2023-11-24T00:18:49.492Z,9.22
2023-11-24T00:23:42.711Z,9.33
2023-11-24T00:26:09.341Z,9.37
2023-11-24T00:28:40.398Z,9.40
2023-11-24T00:31:08.277Z,9.39
2023-11-24T00:33:38.754Z,9.39
2023-11-24T00:36:07.246Z,9.38
2023-11-24T00:38:33.811Z,9.40
2023-11-24T00:41:01.397Z,9.38
2023-11-24T00:43:28.008Z,9.44
2023-11-24T00:45:54.818Z,9.40
2023-11-24T00:50:49.225Z,9.45
2023-11-24T00:53:15.679Z,9.49
2023-11-24T00:55:42.177Z,9.52
2023-11-24T00:58:08.632Z,9.49
2023-11-24T01:00:35.083Z,9.54
2023-11-24T01:03:01.646Z,9.53
2023-11-24T01:05:30.775Z,9.52
2023-11-24T01:07:59.250Z,9.55
2023-11-24T01:10:25.848Z,9.57
2023-11-24T01:12:55.002Z,9.57
2023-11-24T01:15:21.953Z,9.55
2023-11-24T01:17:48.734Z,9.53
2023-11-24T01:20:17.700Z,9.55
2023-11-24T01:22:45.869Z,9.56
2023-11-24T01:25:13.042Z,9.55
2023-11-24T01:27:39.819Z,9.56
2023-11-24T01:30:10.744Z,9.58
2023-11-24T01:32:37.691Z,9.57
2023-11-24T01:35:05.276Z,9.61
2023-11-24T01:37:31.905Z,9.59
2023-11-24T01:39:58.445Z,9.61
2023-11-24T01:42:24.969Z,9.62
2023-11-24T01:44:51.432Z,9.60
2023-11-24T01:47:17.894Z,9.64
2023-11-24T01:49:46.859Z,9.63
2023-11-24T01:52:15.045Z,9.66
2023-11-24T01:54:42.211Z,9.62
2023-11-24T01:57:09.051Z,9.69
2023-11-24T01:59:36.511Z,9.67
2023-11-24T02:02:03.820Z,9.70
2023-11-24T02:04:31.038Z,9.67
2023-11-24T02:06:58.689Z,9.70
2023-11-24T02:09:25.674Z,9.71
2023-11-24T02:11:52.174Z,9.74
2023-11-24T02:14:18.716Z,9.76
2023-11-24T02:16:46.070Z,9.79
2023-11-24T02:19:12.848Z,9.80
2023-11-24T02:21:39.374Z,9.76
2023-11-24T02:24:07.137Z,9.81
2023-11-24T02:26:33.570Z,9.81
2023-11-24T02:29:00.061Z,9.87
2023-11-24T02:31:26.591Z,9.85
2023-11-24T02:33:54.010Z,9.87
2023-11-24T02:36:28.557Z,9.84
2023-11-24T02:38:55.202Z,9.88
2023-11-24T02:41:25.888Z,9.89
2023-11-24T02:43:52.464Z,9.86
2023-11-24T02:46:18.924Z,9.86
2023-11-24T02:48:45.695Z,9.89
2023-11-24T02:51:12.515Z,9.89
2023-11-24T02:53:39.182Z,9.88
2023-11-24T02:56:06.574Z,9.91
2023-11-24T02:58:34.786Z,9.94
2023-11-24T03:01:02.366Z,9.94
2023-11-24T03:03:29.697Z,9.96
2023-11-24T03:05:56.723Z,9.94
2023-11-24T03:08:24.719Z,9.92
2023-11-24T03:10:51.177Z,9.95
2023-11-24T03:13:17.663Z,9.96
2023-11-24T03:15:44.150Z,9.97
2023-11-24T03:18:10.653Z,9.94
2023-11-24T03:20:37.492Z,9.93
2023-11-24T03:23:04.423Z,10.00
2023-11-24T03:25:30.888Z,10.01
2023-11-24T03:27:57.574Z,9.98
2023-11-24T03:30:28.142Z,10.00
2023-11-24T03:32:54.584Z,10.00
2023-11-24T03:35:21.087Z,10.03
2023-11-24T03:37:47.785Z,10.00
2023-11-24T03:40:15.359Z,10.02
2023-11-24T03:42:41.931Z,10.04
2023-11-24T03:45:08.820Z,10.03
2023-11-24T03:47:35.338Z,10.03
2023-11-24T03:50:02.184Z,10.03
2023-11-24T03:52:28.664Z,10.05
2023-11-24T03:54:55.196Z,10.02
2023-11-24T03:57:21.932Z,9.99
2023-11-24T03:59:48.466Z,9.98
2023-11-24T04:02:15.008Z,9.76
2023-11-24T04:04:41.529Z,9.57
2023-11-24T04:07:08.024Z,9.48
2023-11-24T04:09:34.800Z,9.25
2023-11-24T04:12:01.364Z,9.17
2023-11-24T04:14:27.841Z,9.06
2023-11-24T04:16:54.286Z,9.07
2023-11-24T04:19:21.685Z,9.09
2023-11-24T04:21:48.177Z,8.96
2023-11-24T04:24:14.657Z,9.00
2023-11-24T04:26:41.182Z,8.99
2023-11-24T04:29:07.911Z,8.98
2023-11-24T04:31:34.394Z,8.95
2023-11-24T04:34:01.545Z,8.97
2023-11-24T04:36:29.487Z,8.98
2023-11-24T04:38:55.953Z,9.01
2023-11-24T04:41:22.429Z,8.96
2023-11-24T04:43:48.855Z,8.96
2023-11-24T04:46:15.422Z,8.72
2023-11-24T04:48:43.317Z,8.81
2023-11-24T04:51:09.862Z,8.80
2023-11-24T04:53:37.864Z,8.76
2023-11-24T04:56:06.707Z,8.81
2023-11-24T04:58:33.660Z,8.71
2023-11-24T05:01:00.224Z,8.73
2023-11-24T05:03:26.808Z,8.66
2023-11-24T05:05:53.399Z,8.61
2023-11-24T05:08:21.188Z,8.63
2023-11-24T05:10:47.696Z,8.60
2023-11-24T05:13:14.754Z,8.48
2023-11-24T05:15:41.221Z,8.48
2023-11-24T05:18:08.674Z,8.49
2023-11-24T05:20:35.371Z,8.46
2023-11-24T05:23:01.795Z,8.39
2023-11-24T05:25:28.630Z,8.36
2023-11-24T05:27:55.126Z,8.41
2023-11-24T05:30:21.624Z,8.35
2023-11-24T05:32:48.181Z,8.30
2023-11-24T05:35:14.701Z,8.30
2023-11-24T05:37:41.177Z,8.20
2023-11-24T05:40:09.810Z,8.19
2023-11-24T05:42:36.358Z,8.17
2023-11-24T05:45:03.357Z,8.15
2023-11-24T05:47:30.595Z,8.06
2023-11-24T05:49:57.413Z,8.06
2023-11-24T05:52:24.760Z,8.01
2023-11-24T05:54:51.388Z,8.03
2023-11-24T05:57:17.859Z,7.96
2023-11-24T05:59:44.412Z,7.89
2023-11-24T06:02:11.016Z,7.91
2023-11-24T06:04:37.672Z,7.92
2023-11-24T06:07:05.483Z,7.82
2023-11-24T06:09:34.082Z,7.78
2023-11-24T06:12:00.609Z,7.82
2023-11-24T06:14:27.096Z,7.83
2023-11-24T06:16:53.762Z,7.81
2023-11-24T06:19:20.321Z,7.86
2023-11-24T06:21:46.831Z,7.81
2023-11-24T06:24:14.699Z,7.75
2023-11-24T06:26:41.222Z,7.77
2023-11-24T06:29:07.681Z,7.78
2023-11-24T06:31:34.173Z,7.73
2023-11-24T06:34:00.681Z,7.78
2023-11-24T06:36:27.268Z,7.78
2023-11-24T06:38:53.795Z,7.75
2023-11-24T06:41:20.502Z,7.78
2023-11-24T06:43:47.062Z,7.71
2023-11-24T06:46:13.743Z,7.65
2023-11-24T06:48:40.480Z,7.71
2023-11-24T06:51:08.244Z,7.77
2023-11-24T06:53:35.781Z,7.75
2023-11-24T06:56:02.247Z,7.78
2023-11-24T06:58:28.860Z,7.79
2023-11-24T07:00:55.677Z,7.79
2023-11-24T07:03:22.243Z,7.73
2023-11-24T07:05:48.787Z,7.68
2023-11-24T07:08:17.859Z,7.67
2023-11-24T07:10:45.246Z,7.57
2023-11-24T07:13:11.925Z,7.52
2023-11-24T07:15:39.303Z,7.52
2023-11-24T07:18:05.904Z,7.49
2023-11-24T07:20:32.380Z,7.50
2023-11-24T07:22:59.367Z,7.40
2023-11-24T07:25:27.231Z,7.48
2023-11-24T07:27:53.718Z,7.42
2023-11-24T07:30:20.275Z,7.43
2023-11-24T07:32:46.903Z,7.43
2023-11-24T07:35:15.197Z,7.44
2023-11-24T07:37:41.915Z,7.36
2023-11-24T07:40:14.988Z,7.35
2023-11-24T07:42:44.627Z,7.40
2023-11-24T07:45:12.005Z,7.43
2023-11-24T07:47:38.564Z,7.42
2023-11-24T07:50:05.722Z,7.46
2023-11-24T07:52:32.257Z,7.49
2023-11-24T07:54:58.730Z,7.57
2023-11-24T07:57:26.313Z,7.57
2023-11-24T07:59:53.686Z,7.64
2023-11-24T08:02:20.231Z,7.62
2023-11-24T08:04:46.909Z,7.65
2023-11-24T08:07:13.738Z,7.59
2023-11-24T08:09:40.260Z,7.66
2023-11-24T08:12:11.645Z,7.65
2023-11-24T08:14:40.541Z,7.70
2023-11-24T08:17:07.198Z,7.70
2023-11-24T08:19:33.752Z,7.69
2023-11-24T08:22:00.270Z,7.69
2023-11-24T08:24:27.172Z,7.68
2023-11-24T08:26:53.659Z,7.71
2023-11-24T08:29:20.140Z,7.65
2023-11-24T08:31:49.297Z,7.67
2023-11-24T08:34:17.082Z,7.65
2023-11-24T08:36:43.678Z,7.74
2023-11-24T08:39:14.378Z,7.70
2023-11-24T08:41:45.563Z,7.69
2023-11-24T08:44:13.323Z,7.70
2023-11-24T08:46:40.288Z,7.76
2023-11-24T08:49:10.125Z,7.86
2023-11-24T08:51:36.755Z,7.82
2023-11-24T08:54:04.806Z,7.86
2023-11-24T08:56:32.979Z,7.85
2023-11-24T08:58:59.566Z,7.87
2023-11-24T09:01:26.090Z,7.93
2023-11-24T09:03:53.474Z,7.87
2023-11-24T09:06:30.072Z,8.03
2023-11-24T09:08:59.669Z,8.00
2023-11-24T09:11:29.049Z,8.07
2023-11-24T09:13:55.647Z,8.11
2023-11-24T09:16:22.870Z,8.17
2023-11-24T09:18:49.763Z,8.18
2023-11-24T09:21:18.794Z,8.28
2023-11-24T09:23:46.054Z,8.42
2023-11-24T09:26:13.660Z,8.38
2023-11-24T09:28:40.609Z,8.37
2023-11-24T09:31:10.303Z,8.42
2023-11-24T09:33:40.270Z,8.46
2023-11-24T09:36:07.839Z,8.45
2023-11-24T09:38:37.101Z,8.51
2023-11-24T09:41:12.666Z,8.58
2023-11-24T09:43:39.816Z,8.57
2023-11-24T09:46:07.985Z,8.49
2023-11-24T09:48:35.647Z,8.56
2023-11-24T09:51:08.327Z,8.51
2023-11-24T09:53:35.123Z,8.52
2023-11-24T09:56:04.811Z,8.52
2023-11-24T09:58:34.560Z,8.46
2023-11-24T10:01:15.301Z,8.25
2023-11-24T10:03:46.960Z,8.38
2023-11-24T10:06:14.380Z,8.27
2023-11-24T10:08:41.467Z,8.26
2023-11-24T10:11:15.926Z,8.32
2023-11-24T10:13:49.371Z,8.34
2023-11-24T10:16:17.545Z,8.48
2023-11-24T10:18:44.477Z,8.62
2023-11-24T10:21:23.078Z,8.61
2023-11-24T10:23:59.411Z,8.54
2023-11-24T10:26:26.448Z,8.44
2023-11-24T10:28:53.636Z,8.35
2023-11-24T10:31:21.049Z,8.28
2023-11-24T10:33:48.176Z,8.37
2023-11-24T10:36:17.681Z,8.37
2023-11-24T10:38:45.264Z,8.47
2023-11-24T10:41:24.627Z,8.64
2023-11-24T10:43:51.825Z,8.58
2023-11-24T10:46:22.380Z,8.60
2023-11-24T10:49:02.128Z,8.58
2023-11-24T10:51:46.273Z,8.59
2023-11-24T10:54:35.289Z,8.45
2023-11-24T10:57:03.624Z,8.56
2023-11-24T10:59:35.387Z,8.51
2023-11-24T11:02:08.061Z,8.52
2023-11-24T11:04:36.650Z,8.61
2023-11-24T11:07:28.642Z,8.72
2023-11-24T11:10:00.153Z,8.71
2023-11-24T11:12:44.373Z,8.79
2023-11-24T11:15:11.660Z,8.75
2023-11-24T11:17:39.487Z,8.71
2023-11-24T11:20:16.298Z,8.58
2023-11-24T11:22:45.589Z,8.53
2023-11-24T11:25:21.329Z,8.55
2023-11-24T11:27:48.307Z,8.44
2023-11-24T11:30:27.348Z,8.53
2023-11-24T11:33:25.805Z,8.53
2023-11-24T11:36:11.121Z,8.57
2023-11-24T11:38:44.477Z,8.46
2023-11-24T11:41:11.206Z,8.32
2023-11-24T11:43:54.274Z,8.45
2023-11-24T11:46:20.897Z,8.40
2023-11-24T11:48:47.707Z,8.41
2023-11-24T11:51:17.842Z,8.46
2023-11-24T11:53:44.338Z,8.50
2023-11-24T11:56:13.181Z,8.41
2023-11-24T11:58:42.305Z,8.37
2023-11-24T12:01:09.817Z,8.39
2023-11-24T12:03:36.487Z,8.32
2023-11-24T12:06:07.067Z,8.31
2023-11-24T12:08:34.474Z,8.32
2023-11-24T12:11:01.101Z,8.36
2023-11-24T12:13:27.671Z,8.27
2023-11-24T12:15:54.778Z,8.19
2023-11-24T12:18:21.481Z,8.12
2023-11-24T12:20:50.930Z,8.05
2023-11-24T12:23:19.070Z,7.90
2023-11-24T12:25:45.743Z,7.93
2023-11-24T12:28:14.786Z,7.90
2023-11-24T12:30:43.425Z,8.06
2023-11-24T12:33:16.697Z,8.03
2023-11-24T12:35:48.054Z,7.89
2023-11-24T12:38:15.879Z,7.98
2023-11-24T12:40:44.453Z,7.96
2023-11-24T12:43:19.081Z,7.89
2023-11-24T12:45:49.263Z,7.85
2023-11-24T12:48:25.175Z,7.89
2023-11-24T12:50:57.556Z,7.80
2023-11-24T12:53:24.428Z,7.80
2023-11-24T12:55:50.928Z,7.52
2023-11-24T12:58:17.431Z,7.25
2023-11-24T13:00:43.964Z,6.82
2023-11-24T13:03:11.376Z,6.70
2023-11-24T13:05:40.641Z,6.80
2023-11-24T13:08:07.781Z,6.79
2023-11-24T13:10:35.556Z,6.83
2023-11-24T13:13:02.893Z,6.90
2023-11-24T13:15:29.745Z,6.85
2023-11-24T13:17:59.648Z,6.93
2023-11-24T13:20:29.871Z,6.93
2023-11-24T13:22:59.703Z,6.97
2023-11-24T13:25:30.084Z,6.88
2023-11-24T13:27:56.925Z,6.87
2023-11-24T13:30:25.135Z,6.93
2023-11-24T13:32:52.155Z,6.88
2023-11-24T13:35:20.633Z,6.89
2023-11-24T13:37:51.286Z,6.75
2023-11-24T13:40:21.610Z,6.78
2023-11-24T13:42:48.717Z,6.85
2023-11-24T13:45:18.917Z,6.56
2023-11-24T13:47:45.640Z,6.68
2023-11-24T13:50:12.926Z,6.82
2023-11-24T13:52:39.661Z,6.66
2023-11-24T13:55:07.280Z,6.63
2023-11-24T13:57:34.147Z,6.58
2023-11-24T14:00:00.667Z,6.53
2023-11-24T14:02:27.235Z,6.54
2023-11-24T14:04:55.558Z,6.69
2023-11-24T14:07:22.337Z,6.47
2023-11-24T14:09:49.927Z,6.51
2023-11-24T14:12:18.156Z,6.55
2023-11-24T14:14:44.759Z,6.62
2023-11-24T14:17:13.124Z,6.47
2023-11-24T14:19:39.924Z,6.21
2023-11-24T14:22:07.185Z,6.19
2023-11-24T14:24:34.045Z,6.21
2023-11-24T14:27:00.813Z,6.08
2023-11-24T14:29:29.294Z,6.02
2023-11-24T14:31:56.136Z,6.12
2023-11-24T14:34:22.730Z,6.16
2023-11-24T14:36:49.875Z,6.14
2023-11-24T14:39:32.891Z,6.06
2023-11-24T14:42:00.170Z,5.92
2023-11-24T14:44:27.065Z,5.86
2023-11-24T14:46:53.884Z,5.95
2023-11-24T14:49:21.041Z,6.03
2023-11-24T14:51:48.842Z,6.07
2023-11-24T14:54:17.047Z,6.01
2023-11-24T14:56:44.589Z,5.97
2023-11-24T14:59:11.992Z,6.03
2023-11-24T15:01:39.907Z,6.03
2023-11-24T15:04:17.874Z,5.98
2023-11-24T15:06:51.239Z,6.03
2023-11-24T15:09:18.008Z,6.02
2023-11-24T15:11:45.373Z,6.06
2023-11-24T15:14:15.530Z,6.01
2023-11-24T15:16:58.180Z,6.06
2023-11-24T15:19:32.254Z,5.95
2023-11-24T15:22:04.047Z,5.92
2023-11-24T15:24:33.186Z,5.94
2023-11-24T15:27:01.484Z,5.92
2023-11-24T15:29:28.075Z,5.90
2023-11-24T15:31:54.709Z,5.93
2023-11-24T15:34:22.851Z,5.98
2023-11-24T15:36:49.655Z,5.82
2023-11-24T15:39:35.867Z,5.83
2023-11-24T15:42:03.573Z,5.76
2023-11-24T15:44:34.060Z,5.67
2023-11-24T15:47:03.446Z,5.67
2023-11-24T15:49:31.151Z,5.63
2023-11-24T15:51:57.656Z,5.67
2023-11-24T15:54:27.582Z,5.45
2023-11-24T15:56:55.312Z,5.42
2023-11-24T15:59:25.086Z,5.39
2023-11-24T16:01:53.117Z,5.22
2023-11-24T16:04:22.332Z,5.28
2023-11-24T16:06:55.843Z,5.29
2023-11-24T16:09:25.143Z,5.24
2023-11-24T16:12:16.465Z,5.17
2023-11-24T16:14:44.604Z,5.23
2023-11-24T16:17:11.272Z,5.15
2023-11-24T16:19:37.990Z,5.18
2023-11-24T16:22:06.164Z,5.09
2023-11-24T16:24:33.114Z,5.11
2023-11-24T16:27:00.148Z,5.06
2023-11-24T16:29:26.689Z,5.16
2023-11-24T16:31:55.199Z,5.08
2023-11-24T16:34:23.850Z,4.99
2023-11-24T16:36:50.680Z,5.01
2023-11-24T16:39:23.530Z,4.89
2023-11-24T16:41:53.674Z,4.89
2023-11-24T16:44:20.172Z,4.91
2023-11-24T16:46:58.852Z,5.01
2023-11-24T16:49:25.671Z,4.98
2023-11-24T16:51:52.239Z,4.98
2023-11-24T16:54:18.676Z,4.96
2023-11-24T16:56:45.196Z,4.92
2023-11-24T16:59:12.625Z,4.95
2023-11-24T17:01:39.521Z,4.94
2023-11-24T17:04:06.084Z,4.89
2023-11-24T17:06:32.536Z,4.75
2023-11-24T17:08:59.837Z,4.79
2023-11-24T17:11:26.390Z,4.81
2023-11-24T17:13:53.368Z,4.82
2023-11-24T17:16:21.712Z,4.91
2023-11-24T17:18:48.332Z,4.94
2023-11-24T17:21:14.775Z,4.88
2023-11-24T17:23:41.612Z,4.88
2023-11-24T17:26:11.092Z,4.82
2023-11-24T17:28:38.445Z,4.84
2023-11-24T17:31:09.101Z,4.88
2023-11-24T17:33:40.409Z,4.86
2023-11-24T17:36:08.991Z,4.87
2023-11-24T17:38:35.525Z,4.76
2023-11-24T17:41:02.877Z,4.71
2023-11-24T17:43:30.228Z,4.69
2023-11-24T17:45:57.466Z,4.70
2023-11-24T17:48:24.924Z,4.69
2023-11-24T17:50:52.238Z,4.55
2023-11-24T17:53:19.579Z,4.59
2023-11-24T17:55:46.076Z,4.57
2023-11-24T17:58:12.591Z,4.64
2023-11-24T18:00:40.994Z,4.65
2023-11-24T18:03:08.625Z,4.66
2023-11-24T18:05:37.095Z,4.54
2023-11-24T18:08:04.876Z,4.54
2023-11-24T18:10:31.862Z,4.55
2023-11-24T18:12:59.251Z,4.59
2023-11-24T18:15:29.201Z,4.47
2023-11-24T18:17:56.353Z,4.53
2023-11-24T18:20:23.091Z,4.48
2023-11-24T18:22:49.677Z,4.47
2023-11-24T18:25:16.217Z,4.46
2023-11-24T18:27:43.857Z,4.43
2023-11-24T18:30:11.107Z,4.46
2023-11-24T18:32:37.815Z,4.52
2023-11-24T18:35:04.725Z,4.59
2023-11-24T18:37:31.656Z,4.56
2023-11-24T18:40:00.988Z,4.52
2023-11-24T18:42:30.373Z,4.53
2023-11-24T18:44:56.879Z,4.50
2023-11-24T18:47:27.245Z,4.48
2023-11-24T18:49:54.253Z,4.50
2023-11-24T18:52:21.644Z,4.54
2023-11-24T18:54:50.940Z,4.57
2023-11-24T18:57:17.498Z,4.57
2023-11-24T18:59:43.928Z,4.62
2023-11-24T19:02:10.504Z,4.62
2023-11-24T19:04:37.448Z,4.68
2023-11-24T19:07:04.158Z,4.67
2023-11-24T19:09:30.825Z,4.69
2023-11-24T19:11:57.342Z,4.70
2023-11-24T19:14:23.874Z,4.71
2023-11-24T19:16:51.334Z,4.72
2023-11-24T19:19:18.438Z,4.67
2023-11-24T19:21:45.304Z,4.69
2023-11-24T19:24:11.861Z,4.71
2023-11-24T19:26:38.640Z,4.72
2023-11-24T19:29:10.965Z,4.75
2023-11-24T19:31:39.385Z,4.74
2023-11-24T19:34:06.978Z,4.72
2023-11-24T19:36:33.649Z,4.72
2023-11-24T19:39:01.323Z,4.70
2023-11-24T19:41:27.748Z,4.66
2023-11-24T19:43:54.200Z,4.61
2023-11-24T19:46:22.302Z,4.63
2023-11-24T19:48:51.618Z,4.61
2023-11-24T19:51:18.658Z,4.69
2023-11-24T19:53:47.423Z,4.65
2023-11-24T19:56:15.668Z,4.71
2023-11-24T19:58:43.551Z,4.58
2023-11-24T20:01:10.114Z,4.66
2023-11-24T20:03:39.102Z,4.70
2023-11-24T20:06:07.579Z,4.66
2023-11-24T20:08:34.368Z,4.55
2023-11-24T20:11:00.906Z,4.64
2023-11-24T20:13:27.380Z,4.67
2023-11-24T20:15:54.066Z,4.62
2023-11-24T20:18:20.619Z,4.52
2023-11-24T20:20:47.867Z,4.47
2023-11-24T20:23:14.780Z,4.49
2023-11-24T20:25:41.274Z,4.55
2023-11-24T20:28:10.326Z,4.58
2023-11-24T20:30:36.889Z,4.64
2023-11-24T20:33:03.328Z,4.62
2023-11-24T20:35:30.485Z,4.57
2023-11-24T20:37:57.221Z,4.69
2023-11-24T20:40:25.654Z,4.65
2023-11-24T20:42:52.202Z,4.56
2023-11-24T20:45:18.670Z,4.54
2023-11-24T20:47:45.131Z,4.48
2023-11-24T20:50:11.617Z,4.46
2023-11-24T20:52:38.166Z,4.47
2023-11-24T20:55:05.375Z,4.46
2023-11-24T20:57:31.893Z,4.48
2023-11-24T20:59:58.376Z,4.37
2023-11-24T21:02:24.937Z,4.33
2023-11-24T21:04:51.612Z,4.27
2023-11-24T21:07:20.175Z,4.35
2023-11-24T21:09:46.977Z,4.29
2023-11-24T21:12:13.540Z,4.29
2023-11-24T21:14:40.087Z,4.24
2023-11-24T21:17:06.618Z,4.24
2023-11-24T21:19:33.134Z,4.22
2023-11-24T21:21:59.698Z,4.19
2023-11-24T21:24:26.258Z,4.17
2023-11-24T21:26:52.735Z,4.22
2023-11-24T21:29:19.187Z,4.12
2023-11-24T21:31:45.663Z,4.11
2023-11-24T21:34:12.856Z,4.08
2023-11-24T21:36:39.582Z,4.13
2023-11-24T21:39:06.296Z,4.06
2023-11-24T21:41:34.641Z,4.06
2023-11-24T21:44:01.450Z,4.15
2023-11-24T21:46:28.198Z,4.12
2023-11-24T21:48:54.704Z,4.23
2023-11-24T21:51:21.210Z,4.11
2023-11-24T21:53:47.702Z,4.17
2023-11-24T21:56:14.131Z,4.10
2023-11-24T21:58:40.829Z,4.08
2023-11-24T22:01:07.460Z,4.04
2023-11-24T22:03:34.055Z,4.03
2023-11-24T22:06:01.033Z,4.08
2023-11-24T22:08:27.466Z,4.13
2023-11-24T22:10:54.115Z,4.04
2023-11-24T22:13:21.011Z,3.90
2023-11-24T22:15:50.026Z,3.91
2023-11-24T22:18:17.358Z,3.92
2023-11-24T22:20:46.801Z,3.81
2023-11-24T22:23:13.648Z,3.96
2023-11-24T22:25:40.234Z,3.93
2023-11-24T22:28:06.963Z,3.88
2023-11-24T22:30:33.594Z,3.94
2023-11-24T22:33:00.137Z,3.96
2023-11-24T22:35:26.723Z,3.96
2023-11-24T22:37:53.193Z,3.88
2023-11-24T22:40:19.769Z,3.92
2023-11-24T22:42:46.528Z,3.96
2023-11-24T22:45:13.149Z,3.89
2023-11-24T22:47:42.625Z,3.94
2023-11-24T22:50:11.243Z,3.86
2023-11-24T22:52:38.547Z,3.86
2023-11-24T22:55:06.716Z,3.80
2023-11-24T22:57:33.904Z,3.78
2023-11-24T23:00:00.486Z,3.81
2023-11-24T23:02:27.495Z,3.86
2023-11-24T23:04:54.010Z,3.91
2023-11-24T23:07:25.094Z,3.95
2023-11-24T23:09:53.669Z,3.96
2023-11-24T23:12:20.386Z,3.88
2023-11-24T23:14:47.182Z,3.87
2023-11-24T23:17:13.718Z,3.90
2023-11-24T23:19:41.665Z,3.85
2023-11-24T23:22:09.770Z,3.83
2023-11-24T23:24:36.867Z,3.83
2023-11-24T23:27:07.252Z,3.95
2023-11-24T23:29:34.610Z,3.98
2023-11-24T23:32:01.173Z,4.06
2023-11-24T23:34:27.728Z,4.01
2023-11-24T23:36:54.198Z,3.97
2023-11-24T23:39:20.753Z,3.86
2023-11-24T23:41:47.196Z,3.32
2023-11-24T23:44:15.623Z,3.28
2023-11-24T23:46:42.769Z,3.13
2023-11-24T23:49:09.673Z,3.08
2023-11-24T23:51:36.255Z,3.01
2023-11-24T23:54:03.983Z,3.04
2023-11-24T23:56:30.535Z,2.96
2023-11-24T23:58:56.962Z,3.06
